createdAt,value
2017-07-03T00:00:02.961Z,1022.37
2017-07-03T00:05:03.392Z,1022.36
2017-07-03T00:10:02.704Z,1022.43
2017-07-03T00:15:03.012Z,1022.45
2017-07-03T00:20:03.348Z,1022.48
2017-07-03T00:25:02.679Z,1022.41
2017-07-03T00:30:02.971Z,1022.4
2017-07-03T00:35:03.265Z,1022.35
2017-07-03T00:40:02.989Z,1022.36
2017-07-03T00:45:03.369Z,1022.26
2017-07-03T00:50:02.763Z,1022.35
2017-07-03T00:55:03.082Z,1022.32
2017-07-03T01:00:03.364Z,1022.16
2017-07-03T01:05:02.689Z,1022.17
2017-07-03T01:10:03.165Z,1022.2
2017-07-03T01:15:03.531Z,1022.12
2017-07-03T01:20:02.791Z,1022.08
2017-07-03T01:25:03.043Z,1022.12
2017-07-03T01:30:03.387Z,1022.16
2017-07-03T01:35:02.719Z,1022.09
2017-07-03T01:40:03.082Z,1022
2017-07-03T01:45:02.547Z,1022.11
2017-07-03T01:50:03.001Z,1022.03
2017-07-03T01:55:03.372Z,1022.04
2017-07-03T02:00:02.783Z,1022.13
2017-07-03T02:05:03.085Z,1022.12
2017-07-03T02:10:03.516Z,1022.08
2017-07-03T02:15:02.827Z,1022.08
2017-07-03T02:20:03.102Z,1022.06
2017-07-03T02:25:02.572Z,1022.07
2017-07-03T02:30:03.040Z,1022.11
2017-07-03T02:35:03.424Z,1022.14
2017-07-03T02:40:02.796Z,1022.14
2017-07-03T02:45:03.097Z,1022.05
2017-07-03T02:50:03.476Z,1022.04
2017-07-03T02:55:02.945Z,1022.06
2017-07-03T03:00:03.343Z,1022.06
2017-07-03T03:05:02.763Z,1022.01
2017-07-03T03:10:03.275Z,1022.07
2017-07-03T03:15:02.648Z,1022
2017-07-03T03:20:03.017Z,1022.08
2017-07-03T03:25:03.282Z,1022.07
2017-07-03T03:30:02.662Z,1022.05
2017-07-03T03:35:03.016Z,1022.06
2017-07-03T03:40:03.527Z,1022.07
2017-07-03T03:45:02.852Z,1022.07
2017-07-03T03:50:03.222Z,1022.07
2017-07-03T03:55:02.709Z,1022.07
2017-07-03T04:00:03.285Z,1021.98
2017-07-03T04:05:02.749Z,1022.01
2017-07-03T04:10:03.155Z,1022.01
2017-07-03T04:15:02.596Z,1022.09
2017-07-03T04:20:03.004Z,1022
2017-07-03T04:25:03.438Z,1021.98
2017-07-03T04:30:02.874Z,1021.98
2017-07-03T04:35:03.277Z,1021.98
2017-07-03T04:40:02.580Z,1021.92
2017-07-03T04:45:02.933Z,1021.88
2017-07-03T04:50:03.389Z,1021.86
2017-07-03T04:55:02.747Z,1021.98
2017-07-03T05:00:03.117Z,1021.9
2017-07-03T05:05:03.428Z,1021.91
2017-07-03T05:10:02.738Z,1021.93
2017-07-03T05:15:03.271Z,1021.9
2017-07-03T05:20:02.713Z,1021.93
2017-07-03T05:25:03.093Z,1021.91
2017-07-03T05:30:03.453Z,1021.97
2017-07-03T05:35:02.843Z,1021.87
2017-07-03T05:40:03.275Z,1022.06
2017-07-03T05:45:02.608Z,1021.98
2017-07-03T05:50:03.049Z,1021.99
2017-07-03T05:55:03.342Z,1022.05
2017-07-03T06:00:02.601Z,1022.08
2017-07-03T06:05:03.012Z,1022.05
2017-07-03T06:10:03.481Z,1022.13
2017-07-03T06:15:03.154Z,1022.19
2017-07-03T06:20:02.543Z,1022.13
2017-07-03T06:25:02.956Z,1022.12
2017-07-03T06:30:03.252Z,1022.17
2017-07-03T06:35:02.586Z,1022.2
2017-07-03T06:40:02.992Z,1022.17
2017-07-03T06:45:03.410Z,1022.06
2017-07-03T06:50:02.839Z,1022.07
2017-07-03T06:55:03.257Z,1022.14
2017-07-03T07:00:02.756Z,1022.05
2017-07-03T07:05:03.200Z,1022
2017-07-03T07:10:02.567Z,1022.01
2017-07-03T07:15:02.955Z,1021.97
2017-07-03T07:20:03.468Z,1021.91
2017-07-03T07:25:02.922Z,1021.89
2017-07-03T07:30:03.412Z,1021.89
2017-07-03T07:35:02.780Z,1021.83
2017-07-03T07:40:03.259Z,1021.81
2017-07-03T07:45:02.787Z,1021.77
2017-07-03T07:50:03.121Z,1021.72
2017-07-03T07:55:02.695Z,1021.67
2017-07-03T08:00:03.155Z,1021.83
2017-07-03T08:05:02.658Z,1021.72
2017-07-03T08:10:03.201Z,1021.85
2017-07-03T08:15:02.697Z,1021.67
2017-07-03T08:20:03.076Z,1021.61
2017-07-03T08:25:03.400Z,1021.64
2017-07-03T08:30:02.841Z,1021.57
2017-07-03T08:35:03.198Z,1021.57
2017-07-03T08:40:02.883Z,1021.5
2017-07-03T08:45:03.354Z,1021.46
2017-07-03T08:50:02.885Z,1021.49
2017-07-03T08:55:03.250Z,1021.34
2017-07-03T09:00:02.527Z,1021.45
2017-07-03T09:05:02.594Z,1021.31
2017-07-03T09:10:03.126Z,1021.19
2017-07-03T09:15:02.581Z,1021.13
2017-07-03T09:20:02.942Z,1021.28
2017-07-03T09:25:03.314Z,1021.1
2017-07-03T09:30:02.613Z,1021.01
2017-07-03T09:35:03.113Z,1020.99
2017-07-03T09:40:02.553Z,1020.87
2017-07-03T09:45:02.935Z,1020.88
2017-07-03T09:50:03.296Z,1020.85
2017-07-03T09:55:02.733Z,1020.85
2017-07-03T10:00:03.197Z,1020.86
2017-07-03T10:05:03.450Z,1020.77
2017-07-03T10:10:02.732Z,1020.79
2017-07-03T10:15:03.189Z,1020.68
2017-07-03T10:20:02.538Z,1020.63
2017-07-03T10:25:03.017Z,1020.54
2017-07-03T10:30:02.898Z,1020.5
2017-07-03T10:35:03.307Z,1020.64
2017-07-03T10:40:03.160Z,1020.27
2017-07-03T10:45:02.556Z,1020.23
2017-07-03T10:50:03.157Z,1020.31
2017-07-03T10:55:03.491Z,1020.22
2017-07-03T11:00:02.991Z,1020.31
2017-07-03T11:05:03.298Z,1020.26
2017-07-03T11:10:02.921Z,1020.48
2017-07-03T11:15:03.440Z,1020.29
2017-07-03T11:20:03.154Z,1020.14
2017-07-03T11:25:02.782Z,1020.18
2017-07-03T11:30:03.515Z,1020.09
2017-07-03T11:35:02.880Z,1019.94
2017-07-03T11:40:03.381Z,1019.97
2017-07-03T11:45:03.022Z,1020.06
2017-07-03T11:50:02.657Z,1019.87
2017-07-03T11:55:03.186Z,1019.88
2017-07-03T12:00:02.812Z,1019.87
2017-07-03T12:05:03.257Z,1019.86
2017-07-03T12:10:02.856Z,1019.81
2017-07-03T12:15:02.900Z,1019.72
2017-07-03T12:20:03.233Z,1019.84
2017-07-03T12:25:03.245Z,1019.72
2017-07-03T12:30:02.636Z,1019.65
2017-07-03T12:35:03.422Z,1019.55
2017-07-03T12:40:03.024Z,1019.56
2017-07-03T12:45:02.534Z,1019.53
2017-07-03T12:50:02.641Z,1019.43
2017-07-03T12:55:03.364Z,1019.51
2017-07-03T13:00:03.459Z,1019.61
2017-07-03T13:05:03.362Z,1019.59
2017-07-03T13:10:03.498Z,1019.49
2017-07-03T13:15:03.406Z,1019.46
2017-07-03T13:20:03.164Z,1019.57
2017-07-03T13:25:03.256Z,1019.66
2017-07-03T13:30:03.037Z,1019.57
2017-07-03T13:35:03.369Z,1019.55
2017-07-03T13:40:02.881Z,1019.5
2017-07-03T13:45:02.898Z,1019.5
2017-07-03T13:50:02.698Z,1019.53
2017-07-03T13:55:03.080Z,1019.37
2017-07-03T14:00:03.101Z,1019.37
2017-07-03T14:05:03.506Z,1019.4
2017-07-03T14:10:02.642Z,1019.24
2017-07-03T14:15:03.366Z,1019.18
2017-07-03T14:20:02.916Z,1019.25
2017-07-03T14:25:03.363Z,1019.2
2017-07-03T14:30:03.469Z,1019.07
2017-07-03T14:35:03.122Z,1019.06
2017-07-03T14:40:03.288Z,1019.04
2017-07-03T14:45:02.928Z,1018.97
2017-07-03T14:50:03.384Z,1019
2017-07-03T14:55:02.672Z,1018.91
2017-07-03T15:00:02.771Z,1018.94
2017-07-03T15:05:02.878Z,1018.94
2017-07-03T15:10:03.480Z,1018.88
2017-07-03T15:15:02.545Z,1018.81
2017-07-03T15:20:02.746Z,1018.81
2017-07-03T15:25:03.210Z,1018.85
2017-07-03T15:30:03.474Z,1018.78
2017-07-03T15:35:03.474Z,1018.72
2017-07-03T15:40:03.397Z,1018.67
2017-07-03T15:45:02.780Z,1018.58
2017-07-03T15:50:02.838Z,1018.59
2017-07-03T15:55:02.658Z,1018.67
2017-07-03T16:00:03.121Z,1018.54
2017-07-03T16:05:02.777Z,1018.57
2017-07-03T16:10:03.475Z,1018.53
2017-07-03T16:15:02.744Z,1018.56
2017-07-03T16:20:03.461Z,1018.52
2017-07-03T16:25:03.101Z,1018.57
2017-07-03T16:30:03.280Z,1018.59
2017-07-03T16:35:02.758Z,1018.57
2017-07-03T16:40:03.028Z,1018.59
2017-07-03T16:45:03.512Z,1018.56
2017-07-03T16:50:03.455Z,1018.49
2017-07-03T16:55:03.342Z,1018.55
2017-07-03T17:00:03.301Z,1018.53
2017-07-03T17:05:02.823Z,1018.47
2017-07-03T17:10:02.805Z,1018.43
2017-07-03T17:15:02.952Z,1018.62
2017-07-03T17:20:03.068Z,1018.59
2017-07-03T17:25:02.946Z,1018.58
2017-07-03T17:30:03.252Z,1018.61
2017-07-03T17:35:02.819Z,1018.68
2017-07-03T17:40:02.704Z,1018.6
2017-07-03T17:45:02.798Z,1018.6
2017-07-03T17:50:02.820Z,1018.67
2017-07-03T17:55:03.208Z,1018.72
2017-07-03T18:00:02.697Z,1018.77
2017-07-03T18:05:03.034Z,1018.71
2017-07-03T18:10:02.949Z,1018.72
2017-07-03T18:15:02.712Z,1018.75
2017-07-03T18:20:03.422Z,1018.76
2017-07-03T18:25:03.349Z,1018.77
2017-07-03T18:30:03.312Z,1018.83
2017-07-03T18:35:03.258Z,1018.84
2017-07-03T18:40:02.761Z,1018.84
2017-07-03T18:45:03.273Z,1018.87
2017-07-03T18:50:02.731Z,1018.83
2017-07-03T18:55:03.403Z,1018.83
2017-07-03T19:00:02.718Z,1018.8
2017-07-03T19:05:03.309Z,1018.77
2017-07-03T19:10:02.828Z,1018.82
2017-07-03T19:15:03.007Z,1018.84
2017-07-03T19:20:03.176Z,1018.91
2017-07-03T19:25:02.722Z,1018.92
2017-07-03T19:30:02.653Z,1018.93
2017-07-03T19:35:02.769Z,1018.96
2017-07-03T19:40:03.048Z,1019.05
2017-07-03T19:45:02.948Z,1019.03
2017-07-03T19:50:02.772Z,1019.02
2017-07-03T19:55:02.773Z,1019
2017-07-03T20:00:02.751Z,1019.11
2017-07-03T20:05:02.586Z,1019.12
2017-07-03T20:10:03.471Z,1019.19
2017-07-03T20:15:02.685Z,1019.21
2017-07-03T20:20:02.678Z,1019.18
2017-07-03T20:25:02.805Z,1019.16
2017-07-03T20:30:03.179Z,1019.21
2017-07-03T20:35:02.969Z,1019.3
2017-07-03T20:40:03.237Z,1019.34
2017-07-03T20:45:02.826Z,1019.37
2017-07-03T20:50:03.265Z,1019.41
2017-07-03T20:55:03.460Z,1019.41
2017-07-03T21:00:02.615Z,1019.39
2017-07-03T21:05:02.620Z,1019.5
2017-07-03T21:10:02.882Z,1019.56
2017-07-03T21:15:03.369Z,1019.56
2017-07-03T21:20:03.362Z,1019.56
2017-07-03T21:25:03.049Z,1019.48
2017-07-03T21:30:02.695Z,1019.48
2017-07-03T21:35:02.993Z,1019.48
2017-07-03T21:40:02.574Z,1019.46
2017-07-03T21:45:02.746Z,1019.45
2017-07-03T21:50:02.689Z,1019.58
2017-07-03T21:55:03.494Z,1019.63
2017-07-03T22:00:03.393Z,1019.69
2017-07-03T22:05:02.678Z,1019.77
2017-07-03T22:10:03.084Z,1019.71
2017-07-03T22:15:02.633Z,1019.74
2017-07-03T22:20:03.058Z,1019.71
2017-07-03T22:25:03.330Z,1019.66
2017-07-03T22:30:02.599Z,1019.64
2017-07-03T22:35:02.845Z,1019.63
2017-07-03T22:40:03.194Z,1019.59
2017-07-03T22:45:02.592Z,1019.67
2017-07-03T22:50:02.976Z,1019.71
2017-07-03T22:55:03.488Z,1019.73
2017-07-03T23:00:02.978Z,1019.68
2017-07-03T23:05:02.574Z,1019.7
2017-07-03T23:10:03.076Z,1019.72
2017-07-03T23:15:03.409Z,1019.69
2017-07-03T23:20:02.720Z,1019.78
2017-07-03T23:25:03.001Z,1019.76
2017-07-03T23:30:03.376Z,1019.75
2017-07-03T23:35:02.710Z,1019.73
2017-07-03T23:40:03.091Z,1019.73
2017-07-03T23:45:03.418Z,1019.66
2017-07-03T23:50:02.782Z,1019.63
2017-07-03T23:55:03.082Z,1019.55
